sensor_id;sensor_type;location;lat;lon;timestamp;temperature;humidity
33994;DHT22;20673;48.980;8.138;2023-02-28T00:00:33;0.10;99.90
33994;DHT22;20673;48.980;8.138;2023-02-28T00:03:00;0.20;99.90
33994;DHT22;20673;48.980;8.138;2023-02-28T00:05:27;0.20;99.90
33994;DHT22;20673;48.980;8.138;2023-02-28T00:07:53;0.20;99.90
33994;DHT22;20673;48.980;8.138;2023-02-28T00:10:24;0.10;99.90
33994;DHT22;20673;48.980;8.138;2023-02-28T00:12:50;0.00;99.90
33994;DHT22;20673;48.980;8.138;2023-02-28T00:15:17;0.10;99.90
33994;DHT22;20673;48.980;8.138;2023-02-28T00:17:43;0.10;99.90
33994;DHT22;20673;48.980;8.138;2023-02-28T00:20:10;0.00;99.90
33994;DHT22;20673;48.980;8.138;2023-02-28T00:22:41;0.10;99.90
33994;DHT22;20673;48.980;8.138;2023-02-28T00:25:09;0.00;99.90
33994;DHT22;20673;48.980;8.138;2023-02-28T00:27:37;0.10;99.90
33994;DHT22;20673;48.980;8.138;2023-02-28T00:30:05;0.00;99.90
33994;DHT22;20673;48.980;8.138;2023-02-28T00:32:33;0.10;99.90
33994;DHT22;20673;48.980;8.138;2023-02-28T00:35:00;0.00;99.90
33994;DHT22;20673;48.980;8.138;2023-02-28T00:37:26;0.00;99.90
33994;DHT22;20673;48.980;8.138;2023-02-28T00:39:52;0.00;99.90
33994;DHT22;20673;48.980;8.138;2023-02-28T00:42:18;0.00;99.90
33994;DHT22;20673;48.980;8.138;2023-02-28T00:44:44;0.00;99.90
33994;DHT22;20673;48.980;8.138;2023-02-28T00:47:10;0.00;99.90
33994;DHT22;20673;48.980;8.138;2023-02-28T00:49:36;0.00;99.90
33994;DHT22;20673;48.980;8.138;2023-02-28T00:52:02;0.00;99.90
33994;DHT22;20673;48.980;8.138;2023-02-28T00:54:28;-0.10;99.90
33994;DHT22;20673;48.980;8.138;2023-02-28T00:56:54;-0.10;99.90
33994;DHT22;20673;48.980;8.138;2023-02-28T00:59:20;0.00;99.90
33994;DHT22;20673;48.980;8.138;2023-02-28T01:01:46;0.00;99.90
33994;DHT22;20673;48.980;8.138;2023-02-28T01:04:13;0.00;99.90
33994;DHT22;20673;48.980;8.138;2023-02-28T01:06:40;0.00;99.90
33994;DHT22;20673;48.980;8.138;2023-02-28T01:09:06;0.00;99.90
33994;DHT22;20673;48.980;8.138;2023-02-28T01:11:33;0.00;99.90
33994;DHT22;20673;48.980;8.138;2023-02-28T01:13:59;0.00;99.90
33994;DHT22;20673;48.980;8.138;2023-02-28T01:16:26;0.00;99.90
33994;DHT22;20673;48.980;8.138;2023-02-28T01:18:52;-0.10;99.90
33994;DHT22;20673;48.980;8.138;2023-02-28T01:21:19;0.00;99.90
33994;DHT22;20673;48.980;8.138;2023-02-28T01:23:46;0.00;99.90
33994;DHT22;20673;48.980;8.138;2023-02-28T01:26:14;0.00;99.90
33994;DHT22;20673;48.980;8.138;2023-02-28T01:28:41;-0.10;99.90
33994;DHT22;20673;48.980;8.138;2023-02-28T01:31:08;0.00;99.90
33994;DHT22;20673;48.980;8.138;2023-02-28T01:33:34;0.00;99.90
33994;DHT22;20673;48.980;8.138;2023-02-28T01:36:02;-0.10;99.90
33994;DHT22;20673;48.980;8.138;2023-02-28T01:38:32;-0.10;99.90
33994;DHT22;20673;48.980;8.138;2023-02-28T01:40:59;-0.10;99.90
33994;DHT22;20673;48.980;8.138;2023-02-28T01:43:27;-0.20;99.90
33994;DHT22;20673;48.980;8.138;2023-02-28T01:45:55;-0.10;99.90
33994;DHT22;20673;48.980;8.138;2023-02-28T01:48:26;-0.20;99.90
33994;DHT22;20673;48.980;8.138;2023-02-28T01:50:55;-0.20;99.90
33994;DHT22;20673;48.980;8.138;2023-02-28T01:53:30;-0.20;99.90
33994;DHT22;20673;48.980;8.138;2023-02-28T01:55:57;-0.20;99.90
33994;DHT22;20673;48.980;8.138;2023-02-28T01:58:24;-0.20;99.90
33994;DHT22;20673;48.980;8.138;2023-02-28T02:00:50;-0.30;99.90
33994;DHT22;20673;48.980;8.138;2023-02-28T02:03:17;-0.20;99.90
33994;DHT22;20673;48.980;8.138;2023-02-28T02:05:45;-0.20;99.90
33994;DHT22;20673;48.980;8.138;2023-02-28T02:08:16;-0.20;99.90
33994;DHT22;20673;48.980;8.138;2023-02-28T02:10:51;-0.20;99.90
33994;DHT22;20673;48.980;8.138;2023-02-28T02:24:49;-0.50;99.90
33994;DHT22;20673;48.980;8.138;2023-02-28T02:27:20;-0.50;99.90
33994;DHT22;20673;48.980;8.138;2023-02-28T02:30:20;-0.40;99.90
33994;DHT22;20673;48.980;8.138;2023-02-28T02:38:52;-0.50;99.90
33994;DHT22;20673;48.980;8.138;2023-02-28T02:41:40;-0.60;99.90
33994;DHT22;20673;48.980;8.138;2023-02-28T02:44:17;-0.60;99.90
33994;DHT22;20673;48.980;8.138;2023-02-28T02:46:45;-0.60;99.90
33994;DHT22;20673;48.980;8.138;2023-02-28T02:49:13;-0.70;99.90
33994;DHT22;20673;48.980;8.138;2023-02-28T02:51:42;-0.70;99.90
33994;DHT22;20673;48.980;8.138;2023-02-28T02:54:13;-0.80;99.90
33994;DHT22;20673;48.980;8.138;2023-02-28T02:56:46;-0.80;99.90
33994;DHT22;20673;48.980;8.138;2023-02-28T02:59:14;-0.80;99.90
33994;DHT22;20673;48.980;8.138;2023-02-28T03:01:44;-0.80;99.90
33994;DHT22;20673;48.980;8.138;2023-02-28T03:04:11;-0.90;99.90
33994;DHT22;20673;48.980;8.138;2023-02-28T03:06:40;-0.90;99.90
33994;DHT22;20673;48.980;8.138;2023-02-28T03:09:06;-1.00;99.90
33994;DHT22;20673;48.980;8.138;2023-02-28T03:11:32;-1.00;99.90
33994;DHT22;20673;48.980;8.138;2023-02-28T03:14:06;-1.00;99.90
33994;DHT22;20673;48.980;8.138;2023-02-28T03:16:36;-1.00;99.90
33994;DHT22;20673;48.980;8.138;2023-02-28T03:29:51;-1.00;99.90
33994;DHT22;20673;48.980;8.138;2023-02-28T03:32:24;-1.00;99.90
33994;DHT22;20673;48.980;8.138;2023-02-28T03:35:12;-1.00;99.90
33994;DHT22;20673;48.980;8.138;2023-02-28T03:37:48;-1.00;99.90
33994;DHT22;20673;48.980;8.138;2023-02-28T03:40:20;-0.90;99.90
33994;DHT22;20673;48.980;8.138;2023-02-28T03:42:50;-0.90;99.90
33994;DHT22;20673;48.980;8.138;2023-02-28T03:45:20;-0.90;99.90
33994;DHT22;20673;48.980;8.138;2023-02-28T03:50:22;-0.80;99.90
33994;DHT22;20673;48.980;8.138;2023-02-28T03:55:32;-0.70;99.90
33994;DHT22;20673;48.980;8.138;2023-02-28T03:59:01;-0.70;99.90
33994;DHT22;20673;48.980;8.138;2023-02-28T04:00:40;-0.70;99.90
33994;DHT22;20673;48.980;8.138;2023-02-28T04:03:08;-0.70;99.90
33994;DHT22;20673;48.980;8.138;2023-02-28T04:05:43;-0.70;99.90
33994;DHT22;20673;48.980;8.138;2023-02-28T04:08:13;-0.60;99.90
33994;DHT22;20673;48.980;8.138;2023-02-28T04:10:39;-0.60;99.90
33994;DHT22;20673;48.980;8.138;2023-02-28T04:13:06;-0.60;99.90
33994;DHT22;20673;48.980;8.138;2023-02-28T04:15:32;-0.60;99.90
33994;DHT22;20673;48.980;8.138;2023-02-28T04:17:58;-0.50;99.90
33994;DHT22;20673;48.980;8.138;2023-02-28T04:20:24;-0.50;99.90
33994;DHT22;20673;48.980;8.138;2023-02-28T04:22:50;-0.50;99.90
33994;DHT22;20673;48.980;8.138;2023-02-28T04:25:16;-0.40;99.90
33994;DHT22;20673;48.980;8.138;2023-02-28T04:27:42;-0.50;99.90
33994;DHT22;20673;48.980;8.138;2023-02-28T04:30:10;-0.50;99.90
33994;DHT22;20673;48.980;8.138;2023-02-28T04:32:37;-0.40;99.90
33994;DHT22;20673;48.980;8.138;2023-02-28T04:35:03;-0.50;99.90
33994;DHT22;20673;48.980;8.138;2023-02-28T04:37:29;-0.40;99.90
33994;DHT22;20673;48.980;8.138;2023-02-28T04:40:00;-0.40;99.90
33994;DHT22;20673;48.980;8.138;2023-02-28T04:42:26;-0.50;99.90
33994;DHT22;20673;48.980;8.138;2023-02-28T04:44:52;-0.40;99.90
33994;DHT22;20673;48.980;8.138;2023-02-28T04:47:18;-0.40;99.90
33994;DHT22;20673;48.980;8.138;2023-02-28T04:49:44;-0.40;99.90
33994;DHT22;20673;48.980;8.138;2023-02-28T04:52:10;-0.40;99.90
33994;DHT22;20673;48.980;8.138;2023-02-28T04:54:36;-0.30;99.90
33994;DHT22;20673;48.980;8.138;2023-02-28T04:57:04;-0.40;99.90
33994;DHT22;20673;48.980;8.138;2023-02-28T04:59:30;-0.40;99.90
33994;DHT22;20673;48.980;8.138;2023-02-28T05:01:55;-0.40;99.90
33994;DHT22;20673;48.980;8.138;2023-02-28T05:04:21;-0.40;99.90
33994;DHT22;20673;48.980;8.138;2023-02-28T05:06:47;-0.40;99.90
33994;DHT22;20673;48.980;8.138;2023-02-28T05:09:13;-0.40;99.90
33994;DHT22;20673;48.980;8.138;2023-02-28T05:11:39;-0.40;99.90
33994;DHT22;20673;48.980;8.138;2023-02-28T05:14:13;-0.40;99.90
33994;DHT22;20673;48.980;8.138;2023-02-28T05:16:38;-0.40;99.90
33994;DHT22;20673;48.980;8.138;2023-02-28T05:19:04;-0.50;99.90
33994;DHT22;20673;48.980;8.138;2023-02-28T05:21:38;-0.50;99.90
33994;DHT22;20673;48.980;8.138;2023-02-28T05:24:11;-0.50;99.90
33994;DHT22;20673;48.980;8.138;2023-02-28T05:26:41;-0.50;99.90
33994;DHT22;20673;48.980;8.138;2023-02-28T05:29:08;-0.50;99.90
33994;DHT22;20673;48.980;8.138;2023-02-28T05:31:35;-0.60;99.90
33994;DHT22;20673;48.980;8.138;2023-02-28T05:34:01;-0.60;99.90
33994;DHT22;20673;48.980;8.138;2023-02-28T05:36:29;-0.70;99.90
33994;DHT22;20673;48.980;8.138;2023-02-28T05:38:55;-0.70;99.90
33994;DHT22;20673;48.980;8.138;2023-02-28T05:41:21;-0.70;99.90
33994;DHT22;20673;48.980;8.138;2023-02-28T05:43:47;-0.70;99.90
33994;DHT22;20673;48.980;8.138;2023-02-28T05:46:14;-0.70;99.90
33994;DHT22;20673;48.980;8.138;2023-02-28T05:48:41;-0.80;99.90
33994;DHT22;20673;48.980;8.138;2023-02-28T05:51:08;-0.90;99.90
33994;DHT22;20673;48.980;8.138;2023-02-28T05:53:35;-0.90;99.90
33994;DHT22;20673;48.980;8.138;2023-02-28T05:56:01;-0.90;99.90
33994;DHT22;20673;48.980;8.138;2023-02-28T05:58:27;-0.80;99.90
33994;DHT22;20673;48.980;8.138;2023-02-28T06:01:01;-0.80;99.90
33994;DHT22;20673;48.980;8.138;2023-02-28T06:03:24;-0.80;99.90
33994;DHT22;20673;48.980;8.138;2023-02-28T06:05:50;-0.70;99.90
33994;DHT22;20673;48.980;8.138;2023-02-28T06:08:16;-0.70;99.90
33994;DHT22;20673;48.980;8.138;2023-02-28T06:10:43;-0.70;99.90
33994;DHT22;20673;48.980;8.138;2023-02-28T06:13:10;-0.70;99.90
33994;DHT22;20673;48.980;8.138;2023-02-28T06:15:38;-0.60;99.90
33994;DHT22;20673;48.980;8.138;2023-02-28T06:18:04;-0.70;99.90
33994;DHT22;20673;48.980;8.138;2023-02-28T06:20:30;-0.70;99.90
33994;DHT22;20673;48.980;8.138;2023-02-28T06:22:56;-0.60;99.90
33994;DHT22;20673;48.980;8.138;2023-02-28T06:25:26;-0.60;99.90
33994;DHT22;20673;48.980;8.138;2023-02-28T06:27:53;-0.70;99.90
33994;DHT22;20673;48.980;8.138;2023-02-28T06:30:19;-0.60;99.90
33994;DHT22;20673;48.980;8.138;2023-02-28T06:32:48;-0.60;99.90
33994;DHT22;20673;48.980;8.138;2023-02-28T06:35:14;-0.60;99.90
33994;DHT22;20673;48.980;8.138;2023-02-28T06:37:40;-0.60;99.90
33994;DHT22;20673;48.980;8.138;2023-02-28T06:40:07;-0.50;99.90
33994;DHT22;20673;48.980;8.138;2023-02-28T06:42:34;-0.50;99.90
33994;DHT22;20673;48.980;8.138;2023-02-28T06:45:00;-0.40;99.90
33994;DHT22;20673;48.980;8.138;2023-02-28T06:47:30;-0.40;99.90
33994;DHT22;20673;48.980;8.138;2023-02-28T06:49:56;-0.40;99.90
33994;DHT22;20673;48.980;8.138;2023-02-28T06:52:22;-0.30;99.90
33994;DHT22;20673;48.980;8.138;2023-02-28T06:54:48;-0.30;99.90
33994;DHT22;20673;48.980;8.138;2023-02-28T06:57:16;-0.20;99.90
33994;DHT22;20673;48.980;8.138;2023-02-28T06:59:42;-0.20;99.90
33994;DHT22;20673;48.980;8.138;2023-02-28T07:02:08;-0.10;99.90
33994;DHT22;20673;48.980;8.138;2023-02-28T07:04:34;-0.10;99.90
33994;DHT22;20673;48.980;8.138;2023-02-28T07:07:00;0.00;99.90
33994;DHT22;20673;48.980;8.138;2023-02-28T07:09:25;0.00;99.90
33994;DHT22;20673;48.980;8.138;2023-02-28T07:11:53;0.00;99.90
33994;DHT22;20673;48.980;8.138;2023-02-28T07:14:19;0.00;99.90
33994;DHT22;20673;48.980;8.138;2023-02-28T07:16:45;0.00;99.90
33994;DHT22;20673;48.980;8.138;2023-02-28T07:19:11;0.10;99.90
33994;DHT22;20673;48.980;8.138;2023-02-28T07:21:37;0.20;99.90
33994;DHT22;20673;48.980;8.138;2023-02-28T07:24:03;0.20;99.90
33994;DHT22;20673;48.980;8.138;2023-02-28T07:26:29;0.20;99.90
33994;DHT22;20673;48.980;8.138;2023-02-28T07:28:55;0.30;99.90
33994;DHT22;20673;48.980;8.138;2023-02-28T07:31:21;0.30;99.90
33994;DHT22;20673;48.980;8.138;2023-02-28T07:33:47;0.30;99.90
33994;DHT22;20673;48.980;8.138;2023-02-28T07:36:13;0.30;99.90
33994;DHT22;20673;48.980;8.138;2023-02-28T07:38:43;0.30;99.90
33994;DHT22;20673;48.980;8.138;2023-02-28T07:41:10;0.30;99.90
33994;DHT22;20673;48.980;8.138;2023-02-28T07:43:36;0.30;99.90
33994;DHT22;20673;48.980;8.138;2023-02-28T07:46:07;0.30;99.90
33994;DHT22;20673;48.980;8.138;2023-02-28T07:48:31;0.40;99.90
33994;DHT22;20673;48.980;8.138;2023-02-28T07:50:57;0.40;99.90
33994;DHT22;20673;48.980;8.138;2023-02-28T07:53:25;0.40;99.90
33994;DHT22;20673;48.980;8.138;2023-02-28T07:55:54;0.50;99.90
33994;DHT22;20673;48.980;8.138;2023-02-28T07:58:23;0.40;99.90
33994;DHT22;20673;48.980;8.138;2023-02-28T08:00:50;0.50;99.90
33994;DHT22;20673;48.980;8.138;2023-02-28T08:03:19;0.60;99.90
33994;DHT22;20673;48.980;8.138;2023-02-28T08:05:47;0.60;99.90
33994;DHT22;20673;48.980;8.138;2023-02-28T08:08:13;0.70;99.90
33994;DHT22;20673;48.980;8.138;2023-02-28T08:10:40;0.80;99.90
33994;DHT22;20673;48.980;8.138;2023-02-28T08:13:07;0.80;99.90
33994;DHT22;20673;48.980;8.138;2023-02-28T08:15:33;0.90;99.90
33994;DHT22;20673;48.980;8.138;2023-02-28T08:17:59;1.00;99.90
33994;DHT22;20673;48.980;8.138;2023-02-28T08:20:25;1.00;99.90
33994;DHT22;20673;48.980;8.138;2023-02-28T08:22:52;1.10;99.90
33994;DHT22;20673;48.980;8.138;2023-02-28T08:25:18;1.10;99.90
33994;DHT22;20673;48.980;8.138;2023-02-28T08:27:44;1.10;99.90
33994;DHT22;20673;48.980;8.138;2023-02-28T08:30:11;1.10;99.90
33994;DHT22;20673;48.980;8.138;2023-02-28T08:32:39;1.20;99.90
33994;DHT22;20673;48.980;8.138;2023-02-28T08:35:05;1.20;99.90
33994;DHT22;20673;48.980;8.138;2023-02-28T08:37:32;1.30;99.90
33994;DHT22;20673;48.980;8.138;2023-02-28T08:39:58;1.40;99.90
33994;DHT22;20673;48.980;8.138;2023-02-28T08:42:24;1.30;99.90
33994;DHT22;20673;48.980;8.138;2023-02-28T08:44:50;1.30;99.90
33994;DHT22;20673;48.980;8.138;2023-02-28T08:47:16;1.40;99.90
33994;DHT22;20673;48.980;8.138;2023-02-28T08:49:42;1.50;99.90
33994;DHT22;20673;48.980;8.138;2023-02-28T08:52:08;1.70;99.90
33994;DHT22;20673;48.980;8.138;2023-02-28T08:54:34;1.80;99.90
33994;DHT22;20673;48.980;8.138;2023-02-28T08:57:01;1.80;99.90
33994;DHT22;20673;48.980;8.138;2023-02-28T08:59:28;1.80;99.90
33994;DHT22;20673;48.980;8.138;2023-02-28T09:01:55;1.80;99.90
33994;DHT22;20673;48.980;8.138;2023-02-28T09:04:21;1.80;99.90
33994;DHT22;20673;48.980;8.138;2023-02-28T09:06:47;1.80;99.90
33994;DHT22;20673;48.980;8.138;2023-02-28T09:09:14;1.80;99.90
33994;DHT22;20673;48.980;8.138;2023-02-28T09:11:40;1.70;99.90
33994;DHT22;20673;48.980;8.138;2023-02-28T09:14:06;1.80;99.90
33994;DHT22;20673;48.980;8.138;2023-02-28T09:16:33;1.90;99.90
33994;DHT22;20673;48.980;8.138;2023-02-28T09:19:00;2.10;99.90
33994;DHT22;20673;48.980;8.138;2023-02-28T09:21:26;2.40;99.90
33994;DHT22;20673;48.980;8.138;2023-02-28T09:23:53;2.90;99.90
33994;DHT22;20673;48.980;8.138;2023-02-28T09:26:20;3.20;99.90
33994;DHT22;20673;48.980;8.138;2023-02-28T09:28:49;3.00;99.90
33994;DHT22;20673;48.980;8.138;2023-02-28T09:31:19;3.00;99.90
33994;DHT22;20673;48.980;8.138;2023-02-28T09:33:48;2.90;99.90
33994;DHT22;20673;48.980;8.138;2023-02-28T09:36:15;2.90;99.90
33994;DHT22;20673;48.980;8.138;2023-02-28T09:38:41;3.00;99.90
33994;DHT22;20673;48.980;8.138;2023-02-28T09:41:18;2.80;99.90
33994;DHT22;20673;48.980;8.138;2023-02-28T09:43:49;2.80;99.90
33994;DHT22;20673;48.980;8.138;2023-02-28T09:49:04;3.10;99.90
33994;DHT22;20673;48.980;8.138;2023-02-28T09:54:02;3.10;99.90
33994;DHT22;20673;48.980;8.138;2023-02-28T09:56:31;3.00;99.90
33994;DHT22;20673;48.980;8.138;2023-02-28T09:59:03;3.00;99.90
33994;DHT22;20673;48.980;8.138;2023-02-28T10:01:31;3.10;99.90
33994;DHT22;20673;48.980;8.138;2023-02-28T10:04:03;3.30;99.90
33994;DHT22;20673;48.980;8.138;2023-02-28T10:06:33;3.30;99.90
33994;DHT22;20673;48.980;8.138;2023-02-28T10:09:01;3.20;99.90
33994;DHT22;20673;48.980;8.138;2023-02-28T10:11:29;3.00;99.90
33994;DHT22;20673;48.980;8.138;2023-02-28T10:14:12;3.10;99.90
33994;DHT22;20673;48.980;8.138;2023-02-28T10:24:50;3.30;99.90
33994;DHT22;20673;48.980;8.138;2023-02-28T10:27:19;3.30;99.90
33994;DHT22;20673;48.980;8.138;2023-02-28T10:29:48;3.30;99.90
33994;DHT22;20673;48.980;8.138;2023-02-28T10:32:20;3.60;99.90
33994;DHT22;20673;48.980;8.138;2023-02-28T10:34:56;3.80;99.90
33994;DHT22;20673;48.980;8.138;2023-02-28T10:37:25;3.60;99.90
33994;DHT22;20673;48.980;8.138;2023-02-28T10:39:52;3.40;99.90
33994;DHT22;20673;48.980;8.138;2023-02-28T10:45:11;3.40;99.90
33994;DHT22;20673;48.980;8.138;2023-02-28T10:47:48;3.40;99.90
33994;DHT22;20673;48.980;8.138;2023-02-28T10:50:27;3.30;99.90
33994;DHT22;20673;48.980;8.138;2023-02-28T10:53:00;3.40;99.90
33994;DHT22;20673;48.980;8.138;2023-02-28T10:55:37;3.50;99.90
33994;DHT22;20673;48.980;8.138;2023-02-28T10:58:13;3.50;99.90
33994;DHT22;20673;48.980;8.138;2023-02-28T11:00:48;3.50;99.90
33994;DHT22;20673;48.980;8.138;2023-02-28T11:03:33;4.30;99.90
33994;DHT22;20673;48.980;8.138;2023-02-28T11:05:54;4.70;99.90
33994;DHT22;20673;48.980;8.138;2023-02-28T11:08:21;5.00;99.90
33994;DHT22;20673;48.980;8.138;2023-02-28T11:10:58;5.10;99.90
33994;DHT22;20673;48.980;8.138;2023-02-28T11:13:25;5.20;99.90
33994;DHT22;20673;48.980;8.138;2023-02-28T11:15:53;5.00;99.90
33994;DHT22;20673;48.980;8.138;2023-02-28T11:20:56;4.70;99.90
33994;DHT22;20673;48.980;8.138;2023-02-28T11:23:28;4.70;99.90
33994;DHT22;20673;48.980;8.138;2023-02-28T11:25:58;5.40;99.90
33994;DHT22;20673;48.980;8.138;2023-02-28T11:28:29;6.50;99.90
33994;DHT22;20673;48.980;8.138;2023-02-28T11:33:48;7.70;99.90
33994;DHT22;20673;48.980;8.138;2023-02-28T11:38:50;8.10;99.90
33994;DHT22;20673;48.980;8.138;2023-02-28T11:46:49;9.50;99.90
33994;DHT22;20673;48.980;8.138;2023-02-28T11:57:27;6.10;99.90
33994;DHT22;20673;48.980;8.138;2023-02-28T12:05:56;5.20;99.90
33994;DHT22;20673;48.980;8.138;2023-02-28T12:08:26;5.10;99.90
33994;DHT22;20673;48.980;8.138;2023-02-28T12:11:00;5.00;99.90
33994;DHT22;20673;48.980;8.138;2023-02-28T12:13:43;5.10;99.90
33994;DHT22;20673;48.980;8.138;2023-02-28T12:19:02;5.00;99.90
33994;DHT22;20673;48.980;8.138;2023-02-28T12:27:15;4.60;99.90
33994;DHT22;20673;48.980;8.138;2023-02-28T12:29:58;4.60;99.90
33994;DHT22;20673;48.980;8.138;2023-02-28T12:32:32;4.60;99.90
33994;DHT22;20673;48.980;8.138;2023-02-28T12:35:06;4.70;99.90
33994;DHT22;20673;48.980;8.138;2023-02-28T12:37:38;4.70;99.90
33994;DHT22;20673;48.980;8.138;2023-02-28T12:40:21;5.00;99.90
33994;DHT22;20673;48.980;8.138;2023-02-28T12:42:51;5.20;99.90
33994;DHT22;20673;48.980;8.138;2023-02-28T12:45:21;5.10;99.90
33994;DHT22;20673;48.980;8.138;2023-02-28T12:48:00;5.20;99.90
33994;DHT22;20673;48.980;8.138;2023-02-28T12:50:30;5.40;99.90
33994;DHT22;20673;48.980;8.138;2023-02-28T12:53:02;5.30;99.90
33994;DHT22;20673;48.980;8.138;2023-02-28T12:58:32;6.10;99.90
33994;DHT22;20673;48.980;8.138;2023-02-28T13:06:16;6.80;99.90
33994;DHT22;20673;48.980;8.138;2023-02-28T13:11:45;6.60;99.90
33994;DHT22;20673;48.980;8.138;2023-02-28T13:19:32;6.60;99.90
33994;DHT22;20673;48.980;8.138;2023-02-28T13:22:00;6.60;99.90
33994;DHT22;20673;48.980;8.138;2023-02-28T13:24:44;6.50;99.90
33994;DHT22;20673;48.980;8.138;2023-02-28T13:29:51;6.50;99.90
33994;DHT22;20673;48.980;8.138;2023-02-28T13:32:19;6.70;99.90
33994;DHT22;20673;48.980;8.138;2023-02-28T13:35:11;6.50;99.90
33994;DHT22;20673;48.980;8.138;2023-02-28T13:40:06;6.90;99.90
33994;DHT22;20673;48.980;8.138;2023-02-28T13:42:34;7.50;99.90
33994;DHT22;20673;48.980;8.138;2023-02-28T14:03:51;7.10;99.90
33994;DHT22;20673;48.980;8.138;2023-02-28T14:15:02;6.50;99.90
33994;DHT22;20673;48.980;8.138;2023-02-28T14:17:31;6.40;99.90
33994;DHT22;20673;48.980;8.138;2023-02-28T14:19:57;7.00;99.90
33994;DHT22;20673;48.980;8.138;2023-02-28T14:27:49;6.90;99.90
33994;DHT22;20673;48.980;8.138;2023-02-28T14:30:37;7.40;99.90
33994;DHT22;20673;48.980;8.138;2023-02-28T14:33:11;7.80;99.90
33994;DHT22;20673;48.980;8.138;2023-02-28T14:38:41;7.90;99.90
33994;DHT22;20673;48.980;8.138;2023-02-28T14:41:28;8.30;99.90
33994;DHT22;20673;48.980;8.138;2023-02-28T14:43:56;8.20;99.90
33994;DHT22;20673;48.980;8.138;2023-02-28T14:46:25;8.20;99.90
33994;DHT22;20673;48.980;8.138;2023-02-28T14:48:54;8.30;99.90
33994;DHT22;20673;48.980;8.138;2023-02-28T14:51:21;8.00;99.90
33994;DHT22;20673;48.980;8.138;2023-02-28T14:53:50;7.40;99.90
33994;DHT22;20673;48.980;8.138;2023-02-28T14:56:23;7.10;99.90
33994;DHT22;20673;48.980;8.138;2023-02-28T14:58:52;7.10;99.90
33994;DHT22;20673;48.980;8.138;2023-02-28T15:01:21;7.30;99.90
33994;DHT22;20673;48.980;8.138;2023-02-28T15:03:56;7.50;99.90
33994;DHT22;20673;48.980;8.138;2023-02-28T15:06:24;7.60;99.90
33994;DHT22;20673;48.980;8.138;2023-02-28T15:11:36;7.90;99.90
33994;DHT22;20673;48.980;8.138;2023-02-28T15:14:04;8.00;99.90
33994;DHT22;20673;48.980;8.138;2023-02-28T15:16:31;8.00;99.90
33994;DHT22;20673;48.980;8.138;2023-02-28T15:21:32;7.60;99.90
33994;DHT22;20673;48.980;8.138;2023-02-28T15:24:04;8.00;99.90
33994;DHT22;20673;48.980;8.138;2023-02-28T15:26:39;8.30;99.90
33994;DHT22;20673;48.980;8.138;2023-02-28T15:29:10;8.20;99.90
33994;DHT22;20673;48.980;8.138;2023-02-28T15:31:43;8.20;99.90
33994;DHT22;20673;48.980;8.138;2023-02-28T15:34:22;8.00;99.90
33994;DHT22;20673;48.980;8.138;2023-02-28T15:36:47;7.90;99.90
33994;DHT22;20673;48.980;8.138;2023-02-28T15:39:21;8.20;99.90
33994;DHT22;20673;48.980;8.138;2023-02-28T15:41:48;8.10;99.90
33994;DHT22;20673;48.980;8.138;2023-02-28T15:44:27;8.10;99.90
33994;DHT22;20673;48.980;8.138;2023-02-28T15:49:26;8.10;99.90
33994;DHT22;20673;48.980;8.138;2023-02-28T15:51:55;7.80;99.90
33994;DHT22;20673;48.980;8.138;2023-02-28T15:54:30;7.70;99.90
33994;DHT22;20673;48.980;8.138;2023-02-28T15:57:04;7.60;99.90
33994;DHT22;20673;48.980;8.138;2023-02-28T15:59:35;7.50;99.90
33994;DHT22;20673;48.980;8.138;2023-02-28T16:02:13;7.20;99.90
33994;DHT22;20673;48.980;8.138;2023-02-28T16:04:55;7.00;99.90
33994;DHT22;20673;48.980;8.138;2023-02-28T16:07:23;6.70;99.90
33994;DHT22;20673;48.980;8.138;2023-02-28T16:09:50;6.50;99.90
33994;DHT22;20673;48.980;8.138;2023-02-28T16:12:16;6.20;99.90
33994;DHT22;20673;48.980;8.138;2023-02-28T16:14:42;6.10;99.90
33994;DHT22;20673;48.980;8.138;2023-02-28T16:17:29;6.00;99.90
33994;DHT22;20673;48.980;8.138;2023-02-28T16:19:50;5.90;99.90
33994;DHT22;20673;48.980;8.138;2023-02-28T16:22:16;5.70;99.90
33994;DHT22;20673;48.980;8.138;2023-02-28T16:24:42;5.60;99.90
33994;DHT22;20673;48.980;8.138;2023-02-28T16:30:01;5.50;99.90
33994;DHT22;20673;48.980;8.138;2023-02-28T16:32:28;5.50;99.90
33994;DHT22;20673;48.980;8.138;2023-02-28T16:34:54;5.30;99.90
33994;DHT22;20673;48.980;8.138;2023-02-28T16:37:20;5.20;99.90
33994;DHT22;20673;48.980;8.138;2023-02-28T16:39:46;5.20;99.90
33994;DHT22;20673;48.980;8.138;2023-02-28T16:42:16;5.00;99.90
33994;DHT22;20673;48.980;8.138;2023-02-28T16:44:50;5.00;99.90
33994;DHT22;20673;48.980;8.138;2023-02-28T16:47:17;5.00;99.90
33994;DHT22;20673;48.980;8.138;2023-02-28T16:49:43;4.90;99.90
33994;DHT22;20673;48.980;8.138;2023-02-28T16:52:10;4.90;99.90
33994;DHT22;20673;48.980;8.138;2023-02-28T16:54:37;4.80;99.90
33994;DHT22;20673;48.980;8.138;2023-02-28T16:57:04;4.70;99.90
33994;DHT22;20673;48.980;8.138;2023-02-28T16:59:32;4.60;99.90
33994;DHT22;20673;48.980;8.138;2023-02-28T17:01:58;4.50;99.90
33994;DHT22;20673;48.980;8.138;2023-02-28T17:04:27;4.40;99.90
33994;DHT22;20673;48.980;8.138;2023-02-28T17:06:53;4.30;99.90
33994;DHT22;20673;48.980;8.138;2023-02-28T17:09:20;4.30;99.90
33994;DHT22;20673;48.980;8.138;2023-02-28T17:11:48;4.20;99.90
33994;DHT22;20673;48.980;8.138;2023-02-28T17:14:14;4.10;99.90
33994;DHT22;20673;48.980;8.138;2023-02-28T17:16:41;4.10;99.90
33994;DHT22;20673;48.980;8.138;2023-02-28T17:19:13;4.00;99.90
33994;DHT22;20673;48.980;8.138;2023-02-28T17:21:41;4.00;99.90
33994;DHT22;20673;48.980;8.138;2023-02-28T17:24:08;3.90;99.90
33994;DHT22;20673;48.980;8.138;2023-02-28T17:26:36;3.80;99.90
33994;DHT22;20673;48.980;8.138;2023-02-28T17:29:02;3.80;99.90
33994;DHT22;20673;48.980;8.138;2023-02-28T17:31:28;3.70;99.90
33994;DHT22;20673;48.980;8.138;2023-02-28T17:33:56;3.70;99.90
33994;DHT22;20673;48.980;8.138;2023-02-28T17:36:23;3.70;99.90
33994;DHT22;20673;48.980;8.138;2023-02-28T17:38:51;3.60;99.90
33994;DHT22;20673;48.980;8.138;2023-02-28T17:41:19;3.60;99.90
33994;DHT22;20673;48.980;8.138;2023-02-28T17:43:46;3.60;99.90
33994;DHT22;20673;48.980;8.138;2023-02-28T17:46:14;3.60;99.90
33994;DHT22;20673;48.980;8.138;2023-02-28T17:48:41;3.50;99.90
33994;DHT22;20673;48.980;8.138;2023-02-28T17:51:08;3.40;99.90
33994;DHT22;20673;48.980;8.138;2023-02-28T17:53:37;3.40;99.90
33994;DHT22;20673;48.980;8.138;2023-02-28T17:56:02;3.30;99.90
33994;DHT22;20673;48.980;8.138;2023-02-28T17:58:29;3.30;99.90
33994;DHT22;20673;48.980;8.138;2023-02-28T18:00:56;3.30;99.90
33994;DHT22;20673;48.980;8.138;2023-02-28T18:03:22;3.30;99.90
33994;DHT22;20673;48.980;8.138;2023-02-28T18:05:49;3.20;99.90
33994;DHT22;20673;48.980;8.138;2023-02-28T18:08:16;3.20;99.90
33994;DHT22;20673;48.980;8.138;2023-02-28T18:10:42;3.10;99.90
33994;DHT22;20673;48.980;8.138;2023-02-28T18:13:08;3.10;99.90
33994;DHT22;20673;48.980;8.138;2023-02-28T18:15:35;3.00;99.90
33994;DHT22;20673;48.980;8.138;2023-02-28T18:18:01;3.00;99.90
33994;DHT22;20673;48.980;8.138;2023-02-28T18:20:27;2.90;99.90
33994;DHT22;20673;48.980;8.138;2023-02-28T18:22:53;2.90;99.90